Time;durP1;ratioP1;P1;durP2;ratioP2;P2;SDS_P1;SDS_P2;PMS_P1;PMS_P2;Temp;Humidity;BMP_temperature;BMP_pressure;BME280_temperature;BME280_humidity;BME280_pressure;Samples;Min_cycle;Max_cycle;Signal;HPM_P1;HPM_P2
2022/03/03 00:02:22;;;;;;;34.97;26.48;;;2.90;98.60;;;;;;5014117;28;20112;-52
2022/03/03 00:04:48;;;;;;;36.67;26.90;;;2.80;98.50;;;;;;4999781;28;20034;-47
2022/03/03 00:07:14;;;;;;;42.53;29.23;;;2.80;98.30;;;;;;5014377;28;20036;-49
2022/03/03 00:09:39;;;;;;;40.67;29.48;;;2.70;98.00;;;;;;5013943;28;20042;-50
2022/03/03 00:12:06;;;;;;;38.75;28.20;;;2.70;97.80;;;;;;5013553;28;20510;-46
2022/03/03 00:14:32;;;;;;;41.80;28.52;;;2.70;97.80;;;;;;4996098;28;20559;-53
2022/03/03 00:16:57;;;;;;;43.05;27.83;;;2.60;97.50;;;;;;5014233;28;20026;-52
2022/03/03 00:19:23;;;;;;;37.70;27.85;;;2.50;97.80;;;;;;5014447;28;20387;-48
2022/03/03 00:21:49;;;;;;;37.40;26.83;;;2.50;98.20;;;;;;5013928;28;20040;-52
2022/03/03 00:24:15;;;;;;;41.63;26.77;;;2.40;98.30;;;;;;5013394;28;20072;-50
2022/03/03 00:26:40;;;;;;;37.50;25.70;;;2.50;98.50;;;;;;5014106;28;20072;-49
2022/03/03 00:29:06;;;;;;;35.38;25.92;;;2.50;98.60;;;;;;5022694;28;20042;-50
2022/03/03 00:31:32;;;;;;;33.63;24.77;;;2.60;98.60;;;;;;5033549;28;20132;-51
2022/03/03 00:33:57;;;;;;;39.10;27.67;;;2.50;98.70;;;;;;5016575;28;20030;-50
2022/03/03 00:36:23;;;;;;;34.08;25.52;;;2.60;98.70;;;;;;5012809;28;20045;-49
2022/03/03 00:38:48;;;;;;;36.65;25.17;;;2.50;98.80;;;;;;5013648;28;20084;-50
2022/03/03 00:41:14;;;;;;;38.78;26.08;;;2.50;99.20;;;;;;5012587;28;20033;-47
2022/03/03 00:43:40;;;;;;;37.10;25.70;;;2.50;99.50;;;;;;5013037;28;20045;-46
2022/03/03 00:46:05;;;;;;;34.28;25.30;;;2.50;99.30;;;;;;5013775;28;20045;-50
2022/03/03 00:48:31;;;;;;;35.15;25.50;;;2.50;99.30;;;;;;5013345;28;20072;-48
2022/03/03 00:50:57;;;;;;;33.75;24.30;;;2.50;99.30;;;;;;5013933;28;20038;-49
2022/03/03 00:53:23;;;;;;;33.85;25.77;;;2.40;99.50;;;;;;5013095;28;20096;-46
2022/03/03 00:55:49;;;;;;;37.13;25.70;;;2.50;99.70;;;;;;5013407;28;20036;-46
2022/03/03 00:58:15;;;;;;;38.22;26.27;;;2.40;99.90;;;;;;5013117;28;20033;-50
2022/03/03 01:00:40;;;;;;;35.92;26.83;;;2.40;99.90;;;;;;5013259;28;20030;-50
2022/03/03 01:03:06;;;;;;;36.58;24.35;;;2.30;99.90;;;;;;5012586;28;20034;-47
2022/03/03 01:05:31;;;;;;;34.05;24.42;;;2.20;99.90;;;;;;5012885;28;20030;-50
2022/03/03 01:07:58;;;;;;;35.33;24.75;;;2.20;99.90;;;;;;5012762;28;20030;-51
2022/03/03 01:10:23;;;;;;;35.38;24.33;;;2.20;99.90;;;;;;5012918;28;20820;-51
2022/03/03 01:12:49;;;;;;;36.50;24.58;;;2.20;99.90;;;;;;5013149;28;20042;-49
2022/03/03 01:15:15;;;;;;;33.90;25.92;;;2.20;99.90;;;;;;5013308;28;20096;-51
2022/03/03 01:17:40;;;;;;;38.83;27.05;;;2.30;99.90;;;;;;5013073;28;20041;-48
2022/03/03 01:20:07;;;;;;;34.03;24.40;;;2.20;99.60;;;;;;5013467;28;20057;-48
2022/03/03 01:22:33;;;;;;;37.05;25.08;;;2.20;99.70;;;;;;5012836;28;20022;-50
2022/03/03 01:24:59;;;;;;;36.78;25.75;;;2.20;99.80;;;;;;5012722;28;20041;-47
2022/03/03 01:27:25;;;;;;;38.78;24.98;;;2.20;99.90;;;;;;5013261;28;20046;-48
2022/03/03 01:29:50;;;;;;;33.67;23.10;;;2.20;99.90;;;;;;5014574;28;20520;-49
2022/03/03 01:32:16;;;;;;;34.20;24.08;;;2.20;99.90;;;;;;5013977;28;20029;-51
2022/03/03 01:34:42;;;;;;;34.63;23.40;;;2.20;99.90;;;;;;5012796;28;20048;-45
2022/03/03 01:37:08;;;;;;;35.85;24.70;;;2.10;99.90;;;;;;5013183;28;20030;-47
2022/03/03 01:39:33;;;;;;;39.67;26.38;;;2.10;99.90;;;;;;5011529;28;22130;-48
2022/03/03 01:41:59;;;;;;;35.83;24.63;;;2.10;99.70;;;;;;5013129;28;20552;-48
2022/03/03 01:44:25;;;;;;;35.20;24.48;;;2.00;99.80;;;;;;5012701;28;20441;-48
2022/03/03 01:46:56;;;;;;;36.65;23.75;;;1.90;99.90;;;;;;5012682;28;20117;-50
2022/03/03 01:49:23;;;;;;;37.25;25.67;;;1.90;99.90;;;;;;5014086;28;20029;-47
2022/03/03 01:51:48;;;;;;;37.88;24.95;;;1.90;99.90;;;;;;5013024;28;20030;-49
2022/03/03 01:54:14;;;;;;;36.47;24.88;;;1.90;99.90;;;;;;5012632;28;20064;-47
2022/03/03 01:56:41;;;;;;;36.22;24.23;;;1.80;99.90;;;;;;5012687;28;20029;-47
2022/03/03 01:59:08;;;;;;;38.47;25.23;;;1.70;99.90;;;;;;5013009;28;20505;-50
2022/03/03 02:01:36;;;;;;;36.95;25.42;;;1.70;99.90;;;;;;5013012;28;20050;-47
2022/03/03 02:04:06;;;;;;;38.53;24.13;;;1.60;99.90;;;;;;5001159;28;20045;-48
2022/03/03 02:06:32;;;;;;;34.78;25.45;;;1.60;99.90;;;;;;5010794;28;20026;-47
2022/03/03 02:08:58;;;;;;;37.05;25.38;;;1.60;99.90;;;;;;5012202;28;20072;-49
2022/03/03 02:11:24;;;;;;;33.75;24.10;;;1.60;99.90;;;;;;5011852;28;20129;-52
2022/03/03 02:13:50;;;;;;;33.78;24.52;;;1.60;99.90;;;;;;5011910;28;20034;-48
2022/03/03 02:16:15;;;;;;;36.47;24.10;;;1.60;99.90;;;;;;5012050;28;20022;-47
2022/03/03 02:18:43;;;;;;;35.92;25.25;;;1.60;99.90;;;;;;5022790;28;20032;-46
2022/03/03 02:21:13;;;;;;;36.72;25.08;;;1.60;99.90;;;;;;5020856;28;20033;-48
2022/03/03 02:23:42;;;;;;;33.05;24.38;;;1.60;99.90;;;;;;5010837;28;20034;-51
2022/03/03 02:26:22;;;;;;;37.88;24.83;;;1.60;99.90;;;;;;5011454;28;20033;-51
2022/03/03 02:28:49;;;;;;;37.53;25.67;;;1.50;99.90;;;;;;5026206;28;20065;-47
2022/03/03 02:31:15;;;;;;;40.50;25.25;;;1.50;99.90;;;;;;5031889;28;20037;-50
2022/03/03 02:33:41;;;;;;;34.28;24.60;;;1.40;99.90;;;;;;5031802;28;20068;-50
2022/03/03 02:36:20;;;;;;;35.38;24.55;;;1.40;99.80;;;;;;5033239;28;20061;-55
2022/03/03 02:38:47;;;;;;;33.65;24.40;;;1.40;99.70;;;;;;5035860;28;20025;-52
2022/03/03 02:41:12;;;;;;;37.83;25.60;;;1.50;99.60;;;;;;5017039;28;20034;-50
2022/03/03 02:43:38;;;;;;;35.70;26.83;;;1.50;99.20;;;;;;4996328;28;20116;-46
2022/03/03 02:46:06;;;;;;;34.60;24.63;;;1.40;99.40;;;;;;5007018;28;20426;-46
2022/03/03 02:48:31;;;;;;;37.40;24.42;;;1.40;99.60;;;;;;5016073;28;20030;-46
2022/03/03 02:50:57;;;;;;;34.05;24.75;;;1.40;99.70;;;;;;5015405;28;20041;-49
2022/03/03 02:53:23;;;;;;;39.50;26.90;;;1.40;99.40;;;;;;5015012;28;20022;-47
2022/03/03 02:55:49;;;;;;;34.60;25.15;;;1.40;99.60;;;;;;5016184;28;20030;-50
2022/03/03 02:58:15;;;;;;;35.42;25.60;;;1.40;99.80;;;;;;5016067;28;20665;-46
2022/03/03 03:00:43;;;;;;;34.92;24.38;;;1.30;99.90;;;;;;5015785;28;20038;-46
2022/03/03 03:03:10;;;;;;;32.38;23.23;;;1.30;99.90;;;;;;5003915;28;20049;-54
2022/03/03 03:05:36;;;;;;;32.03;23.40;;;1.30;99.80;;;;;;5015144;28;20021;-54
2022/03/03 03:08:02;;;;;;;33.30;22.73;;;1.30;99.30;;;;;;5014540;28;20030;-51
2022/03/03 03:10:27;;;;;;;34.50;23.42;;;1.40;99.20;;;;;;5015020;28;20037;-54
2022/03/03 03:12:53;;;;;;;37.15;25.08;;;1.40;99.10;;;;;;5014470;28;20528;-47
2022/03/03 03:15:19;;;;;;;36.70;24.27;;;1.40;99.10;;;;;;5015374;28;20030;-53
2022/03/03 03:17:44;;;;;;;35.45;25.45;;;1.30;99.60;;;;;;5020984;28;20029;-49
2022/03/03 03:20:11;;;;;;;39.03;27.15;;;1.30;99.90;;;;;;5025082;28;20034;-50
2022/03/03 03:22:37;;;;;;;37.45;25.88;;;1.30;99.90;;;;;;5018706;28;20076;-52
2022/03/03 03:25:08;;;;;;;35.33;24.92;;;1.30;99.90;;;;;;5014702;28;20104;-48
2022/03/03 03:27:36;;;;;;;32.85;24.45;;;1.20;99.90;;;;;;5012342;28;20033;-50
2022/03/03 03:30:06;;;;;;;36.63;23.50;;;1.10;99.90;;;;;;4998505;28;20034;-46
2022/03/03 03:32:31;;;;;;;34.08;24.83;;;1.10;99.90;;;;;;5014000;28;20026;-46
2022/03/03 03:34:57;;;;;;;37.50;25.83;;;1.10;99.90;;;;;;5014509;28;20060;-46
2022/03/03 03:37:23;;;;;;;34.58;24.90;;;1.20;99.90;;;;;;5015425;28;20033;-49
2022/03/03 03:39:48;;;;;;;31.15;24.30;;;1.20;99.90;;;;;;5015207;28;20040;-48
2022/03/03 03:42:14;;;;;;;38.25;25.55;;;1.20;99.90;;;;;;5015754;28;20038;-55
2022/03/03 03:44:39;;;;;;;36.13;25.33;;;1.20;99.90;;;;;;5015615;28;20489;-47
2022/03/03 03:47:06;;;;;;;35.30;25.15;;;1.20;99.90;;;;;;4998346;28;20113;-49
2022/03/03 03:49:33;;;;;;;35.28;24.52;;;1.20;99.90;;;;;;5015371;28;20117;-50
2022/03/03 03:51:58;;;;;;;36.22;25.33;;;1.20;99.90;;;;;;5015052;28;20037;-48
2022/03/03 03:54:24;;;;;;;37.17;24.70;;;1.20;99.90;;;;;;5014081;28;20114;-48
2022/03/03 03:56:50;;;;;;;34.13;25.55;;;1.20;99.90;;;;;;5014965;28;20386;-50
2022/03/03 03:59:15;;;;;;;34.45;24.17;;;1.20;99.90;;;;;;5014330;28;20064;-51
2022/03/03 04:01:41;;;;;;;31.75;23.00;;;1.20;99.90;;;;;;5014637;28;20084;-46
2022/03/03 04:04:06;;;;;;;35.67;24.77;;;1.20;99.90;;;;;;5014306;28;20037;-47
2022/03/03 04:06:32;;;;;;;36.97;23.90;;;1.20;99.90;;;;;;5013460;28;20034;-49
2022/03/03 04:08:58;;;;;;;35.55;24.55;;;1.20;99.90;;;;;;5014717;28;20124;-48
2022/03/03 04:11:24;;;;;;;35.17;24.20;;;1.10;99.90;;;;;;5013894;28;20485;-49
2022/03/03 04:13:49;;;;;;;35.08;24.33;;;1.10;99.90;;;;;;5013846;28;20087;-47
2022/03/03 04:16:15;;;;;;;39.15;25.38;;;1.10;99.90;;;;;;5014412;28;20080;-47
2022/03/03 04:18:41;;;;;;;38.30;24.80;;;1.10;99.90;;;;;;5014557;28;20069;-47
2022/03/03 04:21:07;;;;;;;34.47;23.83;;;1.10;99.90;;;;;;5013182;28;20506;-47
2022/03/03 04:23:32;;;;;;;37.60;25.05;;;1.10;99.90;;;;;;5013578;28;20044;-50
2022/03/03 04:25:58;;;;;;;38.08;24.98;;;1.00;99.90;;;;;;4996620;28;20038;-52
2022/03/03 04:28:24;;;;;;;39.47;26.77;;;1.00;99.90;;;;;;5014518;28;20045;-47
2022/03/03 04:30:49;;;;;;;37.80;25.48;;;1.00;99.90;;;;;;4998755;28;20037;-48
2022/03/03 04:33:15;;;;;;;38.25;25.85;;;1.10;99.90;;;;;;5013574;28;20486;-50
2022/03/03 04:35:41;;;;;;;36.58;25.85;;;1.00;99.90;;;;;;5013744;28;20038;-47
2022/03/03 04:38:07;;;;;;;40.05;25.77;;;1.10;99.90;;;;;;5014098;28;20042;-52
2022/03/03 04:40:32;;;;;;;38.97;25.27;;;1.10;99.90;;;;;;5013775;28;20108;-47
2022/03/03 04:42:58;;;;;;;42.58;25.38;;;1.00;99.90;;;;;;5013490;28;20386;-47
2022/03/03 04:45:23;;;;;;;41.33;25.52;;;1.00;99.90;;;;;;5013644;28;20041;-46
2022/03/03 04:47:50;;;;;;;42.80;25.65;;;0.90;99.90;;;;;;5013469;28;20069;-48
2022/03/03 04:50:15;;;;;;;32.92;25.02;;;1.00;99.90;;;;;;5013465;28;20040;-49
2022/03/03 04:52:41;;;;;;;31.98;23.40;;;0.90;99.90;;;;;;5012795;28;20105;-47
2022/03/03 04:55:07;;;;;;;36.65;24.77;;;0.90;99.90;;;;;;5014086;28;20723;-48
2022/03/03 04:57:33;;;;;;;34.90;24.13;;;0.90;99.90;;;;;;5013454;28;20038;-46
2022/03/03 04:59:59;;;;;;;34.30;23.85;;;0.90;99.90;;;;;;5012176;28;20032;-46
2022/03/03 05:02:25;;;;;;;35.80;25.17;;;0.80;99.90;;;;;;5012854;28;20033;-48
2022/03/03 05:04:50;;;;;;;36.05;24.70;;;0.80;99.90;;;;;;5013099;28;20038;-48
2022/03/03 05:07:16;;;;;;;38.13;26.00;;;0.70;99.90;;;;;;5013791;28;20034;-48
2022/03/03 05:09:41;;;;;;;39.28;24.02;;;0.70;99.90;;;;;;5013723;28;20556;-49
2022/03/03 05:12:08;;;;;;;33.70;23.85;;;0.60;99.90;;;;;;5013940;28;20045;-49
2022/03/03 05:14:33;;;;;;;33.92;24.17;;;0.60;99.90;;;;;;5013048;28;20401;-51
2022/03/03 05:16:59;;;;;;;61.58;35.72;;;0.60;99.90;;;;;;5012760;28;20054;-51
2022/03/03 05:19:24;;;;;;;62.80;35.97;;;0.70;99.90;;;;;;5013064;28;20038;-48
2022/03/03 05:21:50;;;;;;;44.55;28.92;;;0.70;99.90;;;;;;5012873;28;20038;-54
2022/03/03 05:24:16;;;;;;;45.13;26.63;;;0.70;99.90;;;;;;5012527;28;20033;-51
2022/03/03 05:26:41;;;;;;;39.80;26.00;;;0.70;99.90;;;;;;5012921;28;20474;-51
2022/03/03 05:29:07;;;;;;;49.75;27.08;;;0.70;99.90;;;;;;5015703;28;20108;-49
2022/03/03 05:31:33;;;;;;;37.95;25.15;;;0.70;99.90;;;;;;5012885;28;20046;-51
2022/03/03 05:33:59;;;;;;;36.30;24.10;;;0.70;99.90;;;;;;5012883;28;20029;-49
2022/03/03 05:36:26;;;;;;;38.42;23.98;;;0.70;99.90;;;;;;5012641;28;20030;-51
2022/03/03 05:38:55;;;;;;;39.35;25.05;;;0.70;99.90;;;;;;5012973;28;20049;-46
2022/03/03 05:41:21;;;;;;;37.33;24.83;;;0.70;99.90;;;;;;5013241;28;20033;-50
2022/03/03 05:43:47;;;;;;;33.30;24.30;;;0.70;99.90;;;;;;5013134;28;20482;-50
2022/03/03 05:46:14;;;;;;;37.72;26.48;;;0.60;99.90;;;;;;5012878;28;20042;-48
2022/03/03 05:48:40;;;;;;;42.50;26.23;;;0.60;99.90;;;;;;5012729;28;20486;-51
2022/03/03 05:51:06;;;;;;;35.03;24.35;;;0.60;99.90;;;;;;5012500;28;20034;-49
2022/03/03 05:53:32;;;;;;;38.65;25.38;;;0.50;99.90;;;;;;5011922;28;20018;-48
2022/03/03 05:56:01;;;;;;;47.03;28.58;;;0.50;99.90;;;;;;5011673;28;20470;-47
2022/03/03 05:58:44;;;;;;;41.05;27.15;;;0.50;99.90;;;;;;5012373;28;20046;-46
2022/03/03 06:01:12;;;;;;;41.92;26.13;;;0.40;99.90;;;;;;5011815;28;20033;-56
2022/03/03 06:03:38;;;;;;;45.28;27.10;;;0.40;99.90;;;;;;5011932;28;20498;-55
2022/03/03 06:06:21;;;;;;;35.30;24.90;;;0.40;99.90;;;;;;5012367;28;20034;-55
2022/03/03 06:09:02;;;;;;;40.17;25.40;;;0.40;99.90;;;;;;4992338;28;20137;-53
2022/03/03 06:11:28;;;;;;;40.00;25.38;;;0.30;99.90;;;;;;4991966;28;20088;-57
2022/03/03 06:14:04;;;;;;;40.55;26.50;;;0.30;99.90;;;;;;5011405;28;20390;-54
2022/03/03 06:16:31;;;;;;;41.33;25.42;;;0.30;99.90;;;;;;5000985;28;20065;-56
2022/03/03 06:18:59;;;;;;;38.13;25.17;;;0.40;99.90;;;;;;5011660;28;20122;-53
2022/03/03 06:21:25;;;;;;;41.08;25.00;;;0.40;99.90;;;;;;5012436;28;20045;-53
2022/03/03 06:23:51;;;;;;;44.20;25.75;;;0.50;99.90;;;;;;5011206;28;20112;-52
2022/03/03 06:26:18;;;;;;;44.42;25.67;;;0.50;99.90;;;;;;5010977;28;20033;-52
2022/03/03 06:28:44;;;;;;;34.85;25.30;;;0.60;99.90;;;;;;5010367;28;20040;-54
2022/03/03 06:31:09;;;;;;;39.20;25.50;;;0.70;99.90;;;;;;5012220;28;20037;-53
2022/03/03 06:33:36;;;;;;;34.55;23.95;;;0.70;99.90;;;;;;5011504;28;20018;-57
2022/03/03 06:36:02;;;;;;;43.42;24.05;;;0.70;99.90;;;;;;5012053;28;20454;-57
2022/03/03 06:38:28;;;;;;;34.55;23.30;;;0.60;99.90;;;;;;4994196;28;20128;-56
2022/03/03 06:40:55;;;;;;;32.35;23.58;;;0.60;99.90;;;;;;5011444;28;20072;-55
2022/03/03 06:43:21;;;;;;;35.22;24.08;;;0.60;99.90;;;;;;4993976;28;20041;-56
2022/03/03 06:45:47;;;;;;;48.42;25.73;;;0.70;99.90;;;;;;5011548;28;20045;-54
2022/03/03 06:48:13;;;;;;;40.65;24.20;;;0.70;99.90;;;;;;4994239;28;20164;-51
2022/03/03 06:50:40;;;;;;;54.30;24.80;;;0.80;99.90;;;;;;5011026;28;20115;-53
2022/03/03 06:53:09;;;;;;;39.05;24.38;;;0.80;99.90;;;;;;5011381;28;20056;-55
2022/03/03 06:55:37;;;;;;;36.28;24.80;;;0.90;99.90;;;;;;5011937;28;20030;-53
2022/03/03 06:58:03;;;;;;;36.78;23.67;;;0.90;99.90;;;;;;5011865;28;20034;-57
2022/03/03 07:00:33;;;;;;;35.55;24.23;;;1.00;99.90;;;;;;5011482;28;20033;-56
2022/03/03 07:03:00;;;;;;;43.17;26.50;;;1.00;99.90;;;;;;5010607;28;20029;-53
2022/03/03 07:05:28;;;;;;;46.83;27.10;;;1.00;99.90;;;;;;5011549;28;20034;-57
2022/03/03 07:07:54;;;;;;;32.63;22.48;;;1.10;99.90;;;;;;5011358;28;20509;-56
2022/03/03 07:10:25;;;;;;;41.65;27.65;;;1.10;99.90;;;;;;5011871;28;20084;-52
2022/03/03 07:12:56;;;;;;;82.85;43.22;;;1.00;99.90;;;;;;5010875;28;20034;-54
2022/03/03 07:15:22;;;;;;;36.55;24.02;;;1.10;99.90;;;;;;5011869;28;20026;-57
2022/03/03 07:17:56;;;;;;;33.30;23.38;;;1.20;99.10;;;;;;5010308;28;20030;-54
2022/03/03 07:20:39;;;;;;;40.58;22.80;;;1.20;99.40;;;;;;5002794;28;20085;-55
2022/03/03 07:23:12;;;;;;;34.22;21.67;;;1.20;99.50;;;;;;5013181;28;20166;-53
2022/03/03 07:25:41;;;;;;;32.80;21.98;;;1.30;99.60;;;;;;5015409;28;20061;-57
2022/03/03 07:28:09;;;;;;;30.88;21.83;;;1.40;99.10;;;;;;5015010;28;20042;-57
2022/03/03 07:30:43;;;;;;;59.05;29.27;;;1.40;99.10;;;;;;5014748;28;20018;-59
2022/03/03 07:33:13;;;;;;;36.37;24.97;;;1.50;99.10;;;;;;5015207;28;20079;-57
2022/03/03 07:35:41;;;;;;;36.28;23.48;;;1.60;98.70;;;;;;5015214;28;20048;-56
2022/03/03 07:38:13;;;;;;;33.88;23.05;;;1.80;98.40;;;;;;5016134;28;20068;-52
2022/03/03 07:40:41;;;;;;;33.03;22.40;;;1.70;98.20;;;;;;5013274;28;20122;-54
2022/03/03 07:43:08;;;;;;;39.72;25.00;;;1.80;98.20;;;;;;4994686;28;20524;-55
2022/03/03 07:45:34;;;;;;;35.38;24.73;;;1.70;98.40;;;;;;5012769;28;20036;-53
2022/03/03 07:47:59;;;;;;;36.42;24.20;;;1.60;98.40;;;;;;5013255;28;20042;-51
2022/03/03 07:50:27;;;;;;;33.88;23.10;;;1.70;98.80;;;;;;5007326;28;20042;-55
2022/03/03 07:52:54;;;;;;;31.17;22.40;;;1.70;98.90;;;;;;5003053;28;20566;-55
2022/03/03 07:55:20;;;;;;;39.78;24.33;;;1.80;98.60;;;;;;5013064;28;20457;-52
2022/03/03 07:58:01;;;;;;;36.47;24.80;;;1.90;98.70;;;;;;5015094;28;20511;-52
2022/03/03 08:00:33;;;;;;;35.45;23.90;;;1.90;98.80;;;;;;5012485;28;20092;-52
2022/03/03 08:03:01;;;;;;;32.67;24.35;;;2.00;98.60;;;;;;5014718;28;20029;-54
2022/03/03 08:05:30;;;;;;;35.45;23.58;;;2.10;98.40;;;;;;5014487;28;20096;-56
2022/03/03 08:07:58;;;;;;;33.97;24.05;;;2.10;98.40;;;;;;5013947;28;20712;-57
2022/03/03 08:10:26;;;;;;;34.88;22.92;;;2.10;98.30;;;;;;5014050;28;20532;-55
2022/03/03 08:12:55;;;;;;;39.20;25.05;;;2.10;98.20;;;;;;5014700;28;20117;-52
2022/03/03 08:15:21;;;;;;;37.78;24.40;;;2.20;98.10;;;;;;5014582;28;20033;-56
2022/03/03 08:17:52;;;;;;;35.55;23.75;;;2.10;98.20;;;;;;5014155;28;20073;-56
2022/03/03 08:20:19;;;;;;;36.47;24.13;;;2.20;98.00;;;;;;5009941;28;20050;-56
2022/03/03 08:22:45;;;;;;;36.35;23.52;;;2.40;97.90;;;;;;5012778;28;20058;-53
2022/03/03 08:25:11;;;;;;;34.30;23.95;;;2.50;97.80;;;;;;5014378;28;20046;-55
2022/03/03 08:27:38;;;;;;;36.53;24.08;;;2.60;97.60;;;;;;5013249;28;20033;-53
2022/03/03 08:30:07;;;;;;;38.03;24.40;;;2.70;97.50;;;;;;5016209;28;20116;-54
2022/03/03 08:32:37;;;;;;;33.20;23.52;;;2.70;97.60;;;;;;5017834;28;20519;-55
2022/03/03 08:35:16;;;;;;;34.45;23.27;;;2.80;97.70;;;;;;5013086;28;20469;-57
2022/03/03 08:37:49;;;;;;;33.05;22.23;;;2.90;97.50;;;;;;5013750;28;20037;-56
2022/03/03 08:40:18;;;;;;;33.67;23.92;;;3.10;97.30;;;;;;5010717;28;20052;-56
2022/03/03 08:42:56;;;;;;;30.95;21.08;;;3.10;97.20;;;;;;5013127;28;20060;-52
2022/03/03 08:45:23;;;;;;;30.08;21.92;;;3.20;96.90;;;;;;5011589;28;20033;-55
2022/03/03 08:48:08;;;;;;;31.98;23.60;;;3.30;96.50;;;;;;5012785;28;20049;-56
2022/03/03 08:50:36;;;;;;;33.25;23.08;;;3.30;96.30;;;;;;5006024;28;20041;-55
2022/03/03 08:53:04;;;;;;;30.58;22.20;;;3.50;96.20;;;;;;5013581;28;20038;-54
2022/03/03 08:55:31;;;;;;;31.98;21.95;;;3.60;95.70;;;;;;5015138;28;20034;-54
2022/03/03 08:57:58;;;;;;;42.88;23.23;;;3.70;95.50;;;;;;5019769;28;20057;-54
2022/03/03 09:00:24;;;;;;;32.72;23.75;;;3.90;95.70;;;;;;5002812;28;20282;-51
2022/03/03 09:02:50;;;;;;;36.53;23.70;;;3.80;95.40;;;;;;5018838;28;20041;-61
2022/03/03 09:05:16;;;;;;;33.90;23.05;;;3.90;95.50;;;;;;5018865;28;20030;-51
2022/03/03 09:07:42;;;;;;;32.97;23.35;;;4.00;95.10;;;;;;5012364;28;20393;-53
2022/03/03 09:10:08;;;;;;;35.00;23.55;;;4.10;95.10;;;;;;5006347;28;20452;-52
2022/03/03 09:12:34;;;;;;;33.03;23.77;;;4.10;95.20;;;;;;5019430;28;20022;-55
2022/03/03 09:15:00;;;;;;;35.75;24.25;;;4.00;95.10;;;;;;5012259;28;20065;-52
2022/03/03 09:17:25;;;;;;;31.67;23.05;;;4.10;94.90;;;;;;5012286;28;20236;-55
2022/03/03 09:19:51;;;;;;;36.42;24.15;;;4.30;95.10;;;;;;5012189;28;20022;-54
2022/03/03 09:22:17;;;;;;;34.55;23.48;;;4.40;95.00;;;;;;5012914;28;20050;-52
2022/03/03 09:24:42;;;;;;;34.40;25.73;;;4.50;94.90;;;;;;5009727;28;20030;-56
2022/03/03 09:27:08;;;;;;;37.45;24.02;;;4.50;94.90;;;;;;5012677;28;20733;-55
2022/03/03 09:29:34;;;;;;;38.47;23.17;;;4.70;94.80;;;;;;5007557;28;20577;-57
2022/03/03 09:32:04;;;;;;;36.08;24.83;;;4.80;94.80;;;;;;5012881;28;20066;-54
2022/03/03 09:34:30;;;;;;;31.83;23.38;;;4.90;94.70;;;;;;5014684;28;20030;-52
2022/03/03 09:36:57;;;;;;;36.10;25.23;;;4.70;94.60;;;;;;5012844;28;20050;-57
2022/03/03 09:39:23;;;;;;;33.97;24.80;;;4.70;94.50;;;;;;5012483;28;20040;-57
2022/03/03 09:41:50;;;;;;;40.00;25.33;;;4.70;94.50;;;;;;5012555;28;20065;-56
2022/03/03 09:44:23;;;;;;;37.72;25.83;;;4.60;94.40;;;;;;5012261;28;20041;-57
2022/03/03 09:46:49;;;;;;;39.00;25.30;;;4.60;94.40;;;;;;5012667;28;20041;-54
2022/03/03 09:49:19;;;;;;;35.92;25.98;;;4.80;94.00;;;;;;5012366;28;20657;-60
2022/03/03 09:51:47;;;;;;;33.83;25.50;;;4.80;94.20;;;;;;4995272;28;20034;-58
2022/03/03 09:54:13;;;;;;;35.97;25.42;;;4.90;93.60;;;;;;5012733;28;20339;-57
2022/03/03 09:56:39;;;;;;;36.70;26.02;;;5.00;93.00;;;;;;5012406;28;20117;-59
2022/03/03 09:59:07;;;;;;;36.55;26.50;;;5.00;91.80;;;;;;5017904;28;20072;-58
2022/03/03 10:01:33;;;;;;;37.78;26.60;;;5.00;91.70;;;;;;5014956;28;20034;-59
2022/03/03 10:04:24;;;;;;;37.42;26.65;;;5.10;91.70;;;;;;5013138;28;20070;-56
2022/03/03 10:06:51;;;;;;;36.53;26.92;;;5.40;91.20;;;;;;5012836;28;20030;-56
2022/03/03 10:09:18;;;;;;;41.92;26.35;;;5.60;90.50;;;;;;4994772;28;20187;-58
2022/03/03 10:11:59;;;;;;;34.75;24.48;;;5.50;90.30;;;;;;5011971;28;20117;-58
2022/03/03 10:14:26;;;;;;;43.33;25.95;;;5.70;90.10;;;;;;5011307;28;20018;-57
2022/03/03 10:16:52;;;;;;;40.50;26.58;;;5.80;89.30;;;;;;5011517;28;20025;-58
2022/03/03 10:19:17;;;;;;;32.13;24.73;;;5.90;88.40;;;;;;5012174;28;20025;-58
2022/03/03 10:21:44;;;;;;;34.30;24.48;;;5.80;88.10;;;;;;5011942;28;20355;-59
2022/03/03 10:24:29;;;;;;;32.88;23.30;;;5.90;87.90;;;;;;5011756;28;20072;-54
2022/03/03 10:26:55;;;;;;;;;;;6.10;87.80;;;;;;5027762;28;20033;-56
2022/03/03 10:29:22;;;;;;;33.17;22.13;;;6.00;87.50;;;;;;5027122;28;19992;-55
2022/03/03 10:31:50;;;;;;;27.05;20.23;;;6.20;87.10;;;;;;5006535;28;20042;-54
2022/03/03 10:34:21;;;;;;;30.35;21.38;;;6.10;84.20;;;;;;5014357;28;20125;-58
2022/03/03 10:36:57;;;;;;;27.60;20.80;;;6.10;84.10;;;;;;5013707;28;20030;-56
2022/03/03 10:39:22;;;;;;;31.70;21.20;;;6.00;84.90;;;;;;5012079;28;20096;-56
2022/03/03 10:41:53;;;;;;;28.40;21.58;;;5.80;85.00;;;;;;5000938;28;20490;-55
2022/03/03 10:44:22;;;;;;;28.70;21.27;;;5.90;84.70;;;;;;5019435;28;20029;-55
2022/03/03 10:47:03;;;;;;;28.65;20.73;;;6.10;85.20;;;;;;5014667;28;20453;-56
2022/03/03 10:49:29;;;;;;;28.15;21.30;;;6.30;84.60;;;;;;5017763;28;20382;-58
2022/03/03 10:52:12;;;;;;;31.23;21.38;;;6.60;82.90;;;;;;5013139;28;20358;-54
2022/03/03 10:55:05;;;;;;;31.80;21.98;;;6.60;82.80;;;;;;5014628;28;20038;-55
2022/03/03 10:57:35;;;;;;;28.40;20.70;;;6.70;81.80;;;;;;5012887;28;20038;-55
2022/03/03 11:00:09;;;;;;;28.67;20.95;;;6.60;80.50;;;;;;5025009;28;20052;-58
2022/03/03 11:02:36;;;;;;;29.23;20.40;;;6.60;79.50;;;;;;5023657;28;20053;-55
2022/03/03 11:05:03;;;;;;;28.38;19.58;;;6.50;79.70;;;;;;5036875;28;20046;-57
2022/03/03 11:07:29;;;;;;;28.33;19.27;;;6.60;80.00;;;;;;5019359;28;20034;-53
2022/03/03 11:09:56;;;;;;;26.50;18.42;;;6.70;80.40;;;;;;5015400;28;20544;-56
2022/03/03 11:12:22;;;;;;;26.55;19.13;;;6.70;80.50;;;;;;5014948;28;20041;-53
2022/03/03 11:14:48;;;;;;;29.92;19.98;;;6.80;78.80;;;;;;5024281;28;20048;-57
2022/03/03 11:17:14;;;;;;;25.95;20.35;;;6.80;78.70;;;;;;5034327;28;20477;-57
2022/03/03 11:19:41;;;;;;;27.88;20.52;;;6.70;79.50;;;;;;5034986;28;20041;-56
2022/03/03 11:22:07;;;;;;;32.10;20.92;;;6.90;80.30;;;;;;5032163;28;20472;-57
2022/03/03 11:24:37;;;;;;;29.13;21.25;;;7.00;80.10;;;;;;5016018;28;20109;-55
2022/03/03 11:27:04;;;;;;;40.10;30.17;;;7.00;80.40;;;;;;4997878;28;20029;-54
2022/03/03 11:29:32;;;;;;;46.03;34.00;;;7.00;81.80;;;;;;5015667;28;20029;-50
2022/03/03 11:32:04;;;;;;;34.22;24.48;;;7.20;82.10;;;;;;5014874;28;20101;-55
2022/03/03 11:34:30;;;;;;;29.48;22.38;;;7.30;80.70;;;;;;5014467;28;20032;-55
2022/03/03 11:37:22;;;;;;;31.92;22.90;;;7.40;78.80;;;;;;5015360;28;20026;-54
2022/03/03 11:39:57;;;;;;;34.20;22.23;;;7.00;79.80;;;;;;5015567;28;20041;-51
2022/03/03 11:42:29;;;;;;;32.15;23.92;;;7.00;80.00;;;;;;5015074;28;20463;-54
2022/03/03 11:45:17;;;;;;;35.67;23.30;;;6.90;80.70;;;;;;5015424;28;20366;-54
2022/03/03 11:47:45;;;;;;;33.08;23.40;;;7.00;80.70;;;;;;5014663;28;20131;-53
2022/03/03 11:50:16;;;;;;;35.90;24.20;;;7.10;80.90;;;;;;5014966;28;20121;-53
2022/03/03 11:52:44;;;;;;;32.65;24.80;;;7.20;80.40;;;;;;5014114;28;20022;-52
2022/03/03 11:55:44;;;;;;;31.27;23.75;;;7.10;80.10;;;;;;5013002;28;20499;-54
2022/03/03 11:58:10;;;;;;;37.88;25.90;;;7.00;81.00;;;;;;5012751;28;20034;-56
2022/03/03 12:00:43;;;;;;;34.15;24.20;;;7.00;80.00;;;;;;5013085;28;20033;-53
2022/03/03 12:03:11;;;;;;;35.20;25.60;;;7.10;80.90;;;;;;5012100;28;20044;-56
2022/03/03 12:05:39;;;;;;;38.35;26.55;;;7.00;82.20;;;;;;5011642;28;20111;-56
2022/03/03 12:08:27;;;;;;;39.80;26.52;;;7.10;82.70;;;;;;5010136;28;20038;-53
2022/03/03 12:11:16;;;;;;;36.55;26.85;;;7.20;81.30;;;;;;5010957;28;20502;-51
2022/03/03 12:13:49;;;;;;;39.10;26.77;;;7.50;81.40;;;;;;5010861;28;20136;-52
2022/03/03 12:16:35;;;;;;;38.85;27.30;;;7.60;81.50;;;;;;5010528;28;20632;-57
2022/03/03 12:19:00;;;;;;;35.28;25.88;;;7.70;81.30;;;;;;5011671;28;20436;-57
2022/03/03 12:21:36;;;;;;;36.88;25.65;;;7.40;81.80;;;;;;5011133;28;20037;-51
2022/03/03 12:24:14;;;;;;;36.92;26.83;;;7.50;82.00;;;;;;5011799;28;20029;-55
2022/03/03 12:26:55;;;;;;;39.55;28.38;;;7.50;82.70;;;;;;4993860;28;20470;-54
2022/03/03 12:29:52;;;;;;;37.92;26.33;;;7.40;84.10;;;;;;5011528;28;20034;-54
2022/03/03 12:32:24;;;;;;;40.17;29.05;;;7.40;83.80;;;;;;5011042;28;20046;-56
2022/03/03 12:34:50;;;;;;;42.00;29.40;;;7.70;83.50;;;;;;5012543;28;20046;-51
2022/03/03 12:37:17;;;;;;;41.80;29.35;;;7.30;83.20;;;;;;5010291;28;20073;-55
2022/03/03 12:39:50;;;;;;;40.65;29.77;;;7.30;83.70;;;;;;5012138;28;21272;-58
2022/03/03 12:42:24;;;;;;;41.42;30.08;;;7.30;84.50;;;;;;5011755;28;20041;-53
2022/03/03 12:45:11;;;;;;;41.58;30.17;;;7.40;83.80;;;;;;4994801;28;20034;-57